Ponsford, Minnesota
Current Conditions -  °F | °C
As of 3:53 AM on Friday 31 Oct 2014 (Local Time) from KPKD Reporting Station
Clear Clear  
Wind Chill: 16°   Ceiling: Unl
Heat Index: 25°   Visibility: 10mi
Dew Point: 15°   Wind: 8mph
Humidity: 66%   Direction: 360°N
Pressure: 30.52"   Gusts: NA
Location:  46.97°N, 95.38°W
Report Text: KPKD 310853Z AUTO 36007KT 10SM CLR M04/M09 A3052 RMK AO2 SLP357 T10391094 51016 TSNO
Loading
Personal Weather Stations






























Interactive Weather Map
Tropical Storm Tracking
New forecast layout! Learn more

10-Day Weather Forecast

Advertisements
Track Severe Weather on mobile